sensor_id;sensor_type;location;lat;lon;timestamp;P1;durP1;ratioP1;P2;durP2;ratioP2
14708;SDS011;7445;50.774;4.944;2023-04-06T06:54:45;19.37;;;14.20;;
14708;SDS011;7445;50.774;4.944;2023-04-06T06:57:11;18.07;;;13.70;;
14708;SDS011;7445;50.774;4.944;2023-04-06T06:59:38;18.23;;;14.90;;
14708;SDS011;7445;50.774;4.944;2023-04-06T07:02:04;21.77;;;15.77;;
14708;SDS011;7445;50.774;4.944;2023-04-06T07:04:30;17.53;;;14.47;;
14708;SDS011;7445;50.774;4.944;2023-04-06T07:06:55;18.30;;;14.73;;
14708;SDS011;7445;50.774;4.944;2023-04-06T07:09:21;19.20;;;14.53;;
14708;SDS011;7445;50.774;4.944;2023-04-06T07:11:47;19.93;;;14.27;;
14708;SDS011;7445;50.774;4.944;2023-04-06T07:14:14;19.93;;;14.43;;
14708;SDS011;7445;50.774;4.944;2023-04-06T07:16:40;17.57;;;13.97;;
14708;SDS011;7445;50.774;4.944;2023-04-06T07:19:06;16.37;;;14.30;;
14708;SDS011;7445;50.774;4.944;2023-04-06T07:21:32;18.97;;;15.67;;
14708;SDS011;7445;50.774;4.944;2023-04-06T07:23:57;18.00;;;13.60;;
14708;SDS011;7445;50.774;4.944;2023-04-06T07:26:23;19.60;;;15.53;;
14708;SDS011;7445;50.774;4.944;2023-04-06T07:28:49;19.20;;;14.83;;
14708;SDS011;7445;50.774;4.944;2023-04-06T07:31:15;19.80;;;15.93;;
14708;SDS011;7445;50.774;4.944;2023-04-06T07:33:40;19.03;;;15.37;;
14708;SDS011;7445;50.774;4.944;2023-04-06T07:36:06;17.53;;;14.97;;
14708;SDS011;7445;50.774;4.944;2023-04-06T07:38:32;25.13;;;14.93;;
14708;SDS011;7445;50.774;4.944;2023-04-06T07:40:57;18.13;;;15.27;;
14708;SDS011;7445;50.774;4.944;2023-04-06T07:43:23;17.10;;;13.67;;
14708;SDS011;7445;50.774;4.944;2023-04-06T07:45:49;16.17;;;13.97;;
14708;SDS011;7445;50.774;4.944;2023-04-06T07:48:15;20.43;;;16.00;;
14708;SDS011;7445;50.774;4.944;2023-04-06T07:50:41;21.30;;;15.83;;
14708;SDS011;7445;50.774;4.944;2023-04-06T07:53:06;17.40;;;15.13;;
14708;SDS011;7445;50.774;4.944;2023-04-06T07:55:33;15.37;;;13.47;;
14708;SDS011;7445;50.774;4.944;2023-04-06T07:57:58;19.67;;;16.47;;
14708;SDS011;7445;50.774;4.944;2023-04-06T08:00:24;19.53;;;15.33;;
14708;SDS011;7445;50.774;4.944;2023-04-06T08:02:50;24.17;;;17.30;;
14708;SDS011;7445;50.774;4.944;2023-04-06T08:05:16;20.30;;;16.07;;
14708;SDS011;7445;50.774;4.944;2023-04-06T08:07:42;21.17;;;16.60;;
14708;SDS011;7445;50.774;4.944;2023-04-06T08:10:08;20.73;;;15.50;;
14708;SDS011;7445;50.774;4.944;2023-04-06T08:12:34;19.80;;;16.97;;
14708;SDS011;7445;50.774;4.944;2023-04-06T08:15:00;20.03;;;16.90;;
14708;SDS011;7445;50.774;4.944;2023-04-06T08:17:27;18.30;;;15.73;;
14708;SDS011;7445;50.774;4.944;2023-04-06T08:19:55;20.40;;;17.23;;
14708;SDS011;7445;50.774;4.944;2023-04-06T08:22:20;20.83;;;17.23;;
14708;SDS011;7445;50.774;4.944;2023-04-06T08:24:46;19.63;;;16.47;;
14708;SDS011;7445;50.774;4.944;2023-04-06T08:27:13;19.17;;;15.87;;
14708;SDS011;7445;50.774;4.944;2023-04-06T08:29:39;22.03;;;17.30;;
14708;SDS011;7445;50.774;4.944;2023-04-06T08:32:05;21.23;;;15.67;;
14708;SDS011;7445;50.774;4.944;2023-04-06T08:34:34;18.53;;;14.93;;
14708;SDS011;7445;50.774;4.944;2023-04-06T08:37:00;19.53;;;16.83;;
14708;SDS011;7445;50.774;4.944;2023-04-06T08:39:26;16.67;;;14.60;;
14708;SDS011;7445;50.774;4.944;2023-04-06T08:41:52;16.90;;;14.43;;
14708;SDS011;7445;50.774;4.944;2023-04-06T08:44:22;16.10;;;13.67;;
14708;SDS011;7445;50.774;4.944;2023-04-06T08:46:47;17.70;;;12.93;;
14708;SDS011;7445;50.774;4.944;2023-04-06T08:49:13;16.83;;;13.50;;
14708;SDS011;7445;50.774;4.944;2023-04-06T08:51:41;15.80;;;13.33;;
14708;SDS011;7445;50.774;4.944;2023-04-06T08:54:07;14.10;;;12.63;;
14708;SDS011;7445;50.774;4.944;2023-04-06T08:56:33;14.33;;;12.77;;
14708;SDS011;7445;50.774;4.944;2023-04-06T08:59:02;14.10;;;12.03;;
14708;SDS011;7445;50.774;4.944;2023-04-06T09:01:28;15.67;;;12.40;;
14708;SDS011;7445;50.774;4.944;2023-04-06T09:03:56;14.77;;;12.47;;
14708;SDS011;7445;50.774;4.944;2023-04-06T09:06:24;21.00;;;16.60;;
14708;SDS011;7445;50.774;4.944;2023-04-06T09:08:51;18.73;;;15.27;;
14708;SDS011;7445;50.774;4.944;2023-04-06T09:11:17;22.67;;;16.47;;
14708;SDS011;7445;50.774;4.944;2023-04-06T09:16:15;21.10;;;16.70;;
14708;SDS011;7445;50.774;4.944;2023-04-06T09:18:41;20.83;;;16.10;;
14708;SDS011;7445;50.774;4.944;2023-04-06T09:21:07;21.67;;;16.67;;
14708;SDS011;7445;50.774;4.944;2023-04-06T09:23:33;19.27;;;16.87;;
14708;SDS011;7445;50.774;4.944;2023-04-06T09:26:06;19.57;;;15.27;;
14708;SDS011;7445;50.774;4.944;2023-04-06T09:31:16;20.20;;;17.03;;
14708;SDS011;7445;50.774;4.944;2023-04-06T09:33:47;19.50;;;15.77;;
14708;SDS011;7445;50.774;4.944;2023-04-06T09:36:13;20.33;;;15.50;;
14708;SDS011;7445;50.774;4.944;2023-04-06T09:39:00;19.57;;;16.60;;
14708;SDS011;7445;50.774;4.944;2023-04-06T09:41:35;20.47;;;16.60;;
14708;SDS011;7445;50.774;4.944;2023-04-06T09:44:05;21.00;;;15.30;;
14708;SDS011;7445;50.774;4.944;2023-04-06T09:46:33;18.40;;;16.17;;
14708;SDS011;7445;50.774;4.944;2023-04-06T09:49:06;22.73;;;17.80;;
14708;SDS011;7445;50.774;4.944;2023-04-06T09:51:39;18.60;;;16.37;;
14708;SDS011;7445;50.774;4.944;2023-04-06T09:54:18;22.03;;;15.40;;
14708;SDS011;7445;50.774;4.944;2023-04-06T09:56:47;21.03;;;15.87;;
14708;SDS011;7445;50.774;4.944;2023-04-06T10:02:06;19.40;;;16.37;;
14708;SDS011;7445;50.774;4.944;2023-04-06T10:07:05;19.17;;;16.20;;
14708;SDS011;7445;50.774;4.944;2023-04-06T10:09:32;16.30;;;14.63;;
14708;SDS011;7445;50.774;4.944;2023-04-06T10:12:04;20.93;;;15.73;;
14708;SDS011;7445;50.774;4.944;2023-04-06T10:14:32;19.83;;;17.20;;
14708;SDS011;7445;50.774;4.944;2023-04-06T10:17:02;18.17;;;16.13;;
14708;SDS011;7445;50.774;4.944;2023-04-06T10:19:31;17.40;;;15.50;;
14708;SDS011;7445;50.774;4.944;2023-04-06T10:22:19;20.50;;;17.00;;
14708;SDS011;7445;50.774;4.944;2023-04-06T10:24:51;20.73;;;16.20;;
14708;SDS011;7445;50.774;4.944;2023-04-06T10:27:27;19.70;;;15.80;;
14708;SDS011;7445;50.774;4.944;2023-04-06T10:29:54;22.43;;;16.70;;
14708;SDS011;7445;50.774;4.944;2023-04-06T10:32:32;19.73;;;16.47;;
14708;SDS011;7445;50.774;4.944;2023-04-06T10:35:05;21.37;;;15.77;;
14708;SDS011;7445;50.774;4.944;2023-04-06T10:38:01;16.63;;;14.83;;
14708;SDS011;7445;50.774;4.944;2023-04-06T10:40:29;19.10;;;15.73;;
14708;SDS011;7445;50.774;4.944;2023-04-06T10:43:06;18.33;;;16.00;;
14708;SDS011;7445;50.774;4.944;2023-04-06T10:45:38;19.03;;;14.33;;
14708;SDS011;7445;50.774;4.944;2023-04-06T10:48:12;21.60;;;15.90;;
14708;SDS011;7445;50.774;4.944;2023-04-06T10:50:40;21.90;;;15.87;;
14708;SDS011;7445;50.774;4.944;2023-04-06T10:53:07;17.70;;;14.60;;
14708;SDS011;7445;50.774;4.944;2023-04-06T10:55:32;17.90;;;16.00;;
14708;SDS011;7445;50.774;4.944;2023-04-06T10:57:59;18.30;;;15.63;;
14708;SDS011;7445;50.774;4.944;2023-04-06T11:00:25;18.00;;;15.47;;
14708;SDS011;7445;50.774;4.944;2023-04-06T11:02:51;19.07;;;16.30;;
14708;SDS011;7445;50.774;4.944;2023-04-06T11:05:23;17.53;;;15.30;;
14708;SDS011;7445;50.774;4.944;2023-04-06T11:07:50;19.67;;;15.47;;
14708;SDS011;7445;50.774;4.944;2023-04-06T11:10:20;18.33;;;14.63;;
14708;SDS011;7445;50.774;4.944;2023-04-06T11:12:52;16.00;;;13.33;;
14708;SDS011;7445;50.774;4.944;2023-04-06T11:15:19;20.93;;;14.57;;
14708;SDS011;7445;50.774;4.944;2023-04-06T11:17:45;18.60;;;16.00;;
14708;SDS011;7445;50.774;4.944;2023-04-06T11:20:11;17.13;;;15.30;;
14708;SDS011;7445;50.774;4.944;2023-04-06T11:22:47;20.17;;;14.20;;
14708;SDS011;7445;50.774;4.944;2023-04-06T11:25:14;14.47;;;12.67;;
14708;SDS011;7445;50.774;4.944;2023-04-06T11:27:41;16.57;;;14.27;;
14708;SDS011;7445;50.774;4.944;2023-04-06T11:30:08;17.47;;;14.70;;
14708;SDS011;7445;50.774;4.944;2023-04-06T11:32:41;18.97;;;13.43;;
14708;SDS011;7445;50.774;4.944;2023-04-06T11:35:26;17.70;;;15.50;;
14708;SDS011;7445;50.774;4.944;2023-04-06T11:37:52;18.93;;;13.43;;
14708;SDS011;7445;50.774;4.944;2023-04-06T11:40:21;17.90;;;13.57;;
14708;SDS011;7445;50.774;4.944;2023-04-06T11:42:54;16.30;;;14.60;;
14708;SDS011;7445;50.774;4.944;2023-04-06T11:45:21;16.50;;;12.77;;
14708;SDS011;7445;50.774;4.944;2023-04-06T11:48:04;15.57;;;13.57;;
14708;SDS011;7445;50.774;4.944;2023-04-06T11:50:33;15.57;;;13.97;;
14708;SDS011;7445;50.774;4.944;2023-04-06T11:53:00;14.47;;;12.97;;
14708;SDS011;7445;50.774;4.944;2023-04-06T11:55:27;16.23;;;14.67;;
14708;SDS011;7445;50.774;4.944;2023-04-06T11:57:53;15.17;;;13.17;;
14708;SDS011;7445;50.774;4.944;2023-04-06T12:00:19;18.80;;;16.03;;
14708;SDS011;7445;50.774;4.944;2023-04-06T12:02:46;14.80;;;13.10;;
14708;SDS011;7445;50.774;4.944;2023-04-06T12:05:12;15.53;;;13.80;;
14708;SDS011;7445;50.774;4.944;2023-04-06T12:07:38;13.73;;;12.13;;
14708;SDS011;7445;50.774;4.944;2023-04-06T12:10:04;15.50;;;13.27;;
14708;SDS011;7445;50.774;4.944;2023-04-06T12:12:30;16.83;;;13.60;;
14708;SDS011;7445;50.774;4.944;2023-04-06T12:14:57;18.23;;;14.70;;
14708;SDS011;7445;50.774;4.944;2023-04-06T12:17:23;15.97;;;13.13;;
14708;SDS011;7445;50.774;4.944;2023-04-06T12:19:49;16.70;;;14.80;;
14708;SDS011;7445;50.774;4.944;2023-04-06T12:22:18;15.63;;;14.07;;
14708;SDS011;7445;50.774;4.944;2023-04-06T12:24:43;16.17;;;14.47;;
14708;SDS011;7445;50.774;4.944;2023-04-06T12:27:09;15.60;;;13.97;;
14708;SDS011;7445;50.774;4.944;2023-04-06T12:29:36;17.30;;;14.23;;
14708;SDS011;7445;50.774;4.944;2023-04-06T12:32:02;16.37;;;14.63;;
14708;SDS011;7445;50.774;4.944;2023-04-06T12:34:28;21.33;;;16.60;;
14708;SDS011;7445;50.774;4.944;2023-04-06T12:36:54;17.37;;;15.47;;
14708;SDS011;7445;50.774;4.944;2023-04-06T12:39:20;20.10;;;15.40;;
14708;SDS011;7445;50.774;4.944;2023-04-06T12:41:46;16.00;;;14.37;;
14708;SDS011;7445;50.774;4.944;2023-04-06T12:44:12;16.67;;;14.93;;
14708;SDS011;7445;50.774;4.944;2023-04-06T12:46:38;16.53;;;14.80;;
14708;SDS011;7445;50.774;4.944;2023-04-06T12:49:03;14.07;;;12.67;;
14708;SDS011;7445;50.774;4.944;2023-04-06T12:51:30;16.13;;;14.43;;
14708;SDS011;7445;50.774;4.944;2023-04-06T12:53:56;15.83;;;14.13;;
14708;SDS011;7445;50.774;4.944;2023-04-06T12:56:22;17.47;;;14.17;;
14708;SDS011;7445;50.774;4.944;2023-04-06T12:58:50;18.73;;;14.93;;
14708;SDS011;7445;50.774;4.944;2023-04-06T13:01:16;17.93;;;14.53;;
14708;SDS011;7445;50.774;4.944;2023-04-06T13:03:42;15.80;;;13.87;;
14708;SDS011;7445;50.774;4.944;2023-04-06T13:06:08;16.73;;;15.00;;
14708;SDS011;7445;50.774;4.944;2023-04-06T13:08:35;15.03;;;13.47;;
14708;SDS011;7445;50.774;4.944;2023-04-06T13:11:02;16.27;;;14.57;;
14708;SDS011;7445;50.774;4.944;2023-04-06T13:13:29;16.90;;;14.53;;
14708;SDS011;7445;50.774;4.944;2023-04-06T13:16:00;15.93;;;14.30;;
14708;SDS011;7445;50.774;4.944;2023-04-06T13:18:28;17.00;;;15.40;;
14708;SDS011;7445;50.774;4.944;2023-04-06T13:20:55;17.23;;;14.63;;
14708;SDS011;7445;50.774;4.944;2023-04-06T13:23:21;16.20;;;14.43;;
14708;SDS011;7445;50.774;4.944;2023-04-06T13:25:47;17.60;;;15.80;;
14708;SDS011;7445;50.774;4.944;2023-04-06T13:28:13;20.23;;;14.63;;
14708;SDS011;7445;50.774;4.944;2023-04-06T13:30:39;18.63;;;16.73;;
14708;SDS011;7445;50.774;4.944;2023-04-06T13:33:05;18.30;;;15.40;;
14708;SDS011;7445;50.774;4.944;2023-04-06T13:35:31;18.63;;;16.73;;
14708;SDS011;7445;50.774;4.944;2023-04-06T13:37:58;19.43;;;16.90;;
14708;SDS011;7445;50.774;4.944;2023-04-06T13:40:24;21.47;;;19.27;;
14708;SDS011;7445;50.774;4.944;2023-04-06T13:42:50;21.40;;;18.27;;
14708;SDS011;7445;50.774;4.944;2023-04-06T13:45:16;19.93;;;17.93;;
14708;SDS011;7445;50.774;4.944;2023-04-06T13:47:42;19.17;;;17.20;;
14708;SDS011;7445;50.774;4.944;2023-04-06T13:50:07;26.27;;;18.67;;
14708;SDS011;7445;50.774;4.944;2023-04-06T13:52:34;20.63;;;18.03;;
14708;SDS011;7445;50.774;4.944;2023-04-06T13:55:01;18.43;;;16.53;;
14708;SDS011;7445;50.774;4.944;2023-04-06T13:57:27;19.07;;;16.87;;
14708;SDS011;7445;50.774;4.944;2023-04-06T13:59:54;17.43;;;15.73;;
14708;SDS011;7445;50.774;4.944;2023-04-06T14:02:20;46.50;;;41.50;;
14708;SDS011;7445;50.774;4.944;2023-04-06T14:04:51;21.47;;;18.23;;
14708;SDS011;7445;50.774;4.944;2023-04-06T14:07:20;19.83;;;17.50;;
14708;SDS011;7445;50.774;4.944;2023-04-06T14:09:46;23.13;;;20.77;;
14708;SDS011;7445;50.774;4.944;2023-04-06T14:12:12;19.77;;;17.77;;
14708;SDS011;7445;50.774;4.944;2023-04-06T14:14:37;19.77;;;17.67;;
14708;SDS011;7445;50.774;4.944;2023-04-06T14:17:03;19.30;;;17.27;;
14708;SDS011;7445;50.774;4.944;2023-04-06T14:19:28;19.97;;;17.73;;
14708;SDS011;7445;50.774;4.944;2023-04-06T14:21:54;18.63;;;16.77;;
14708;SDS011;7445;50.774;4.944;2023-04-06T14:24:21;20.57;;;17.17;;
14708;SDS011;7445;50.774;4.944;2023-04-06T14:26:47;18.87;;;16.80;;
14708;SDS011;7445;50.774;4.944;2023-04-06T14:29:13;19.13;;;17.17;;
14708;SDS011;7445;50.774;4.944;2023-04-06T14:31:38;19.27;;;17.33;;
14708;SDS011;7445;50.774;4.944;2023-04-06T14:34:04;19.03;;;17.03;;
14708;SDS011;7445;50.774;4.944;2023-04-06T14:36:33;19.80;;;16.57;;
14708;SDS011;7445;50.774;4.944;2023-04-06T14:39:03;22.13;;;18.00;;
14708;SDS011;7445;50.774;4.944;2023-04-06T14:41:31;20.13;;;17.90;;
14708;SDS011;7445;50.774;4.944;2023-04-06T14:43:57;18.93;;;17.03;;
14708;SDS011;7445;50.774;4.944;2023-04-06T14:46:23;21.87;;;17.33;;
14708;SDS011;7445;50.774;4.944;2023-04-06T14:48:48;19.90;;;17.80;;
14708;SDS011;7445;50.774;4.944;2023-04-06T14:51:14;19.83;;;17.87;;
14708;SDS011;7445;50.774;4.944;2023-04-06T14:53:40;19.30;;;17.30;;
14708;SDS011;7445;50.774;4.944;2023-04-06T14:56:06;20.70;;;18.47;;
14708;SDS011;7445;50.774;4.944;2023-04-06T14:58:31;19.20;;;16.83;;
14708;SDS011;7445;50.774;4.944;2023-04-06T15:00:58;21.63;;;18.93;;
14708;SDS011;7445;50.774;4.944;2023-04-06T15:03:25;20.93;;;18.80;;
14708;SDS011;7445;50.774;4.944;2023-04-06T15:05:54;20.10;;;17.83;;
14708;SDS011;7445;50.774;4.944;2023-04-06T15:08:21;21.60;;;18.60;;
14708;SDS011;7445;50.774;4.944;2023-04-06T15:10:47;21.73;;;19.43;;
14708;SDS011;7445;50.774;4.944;2023-04-06T15:13:13;23.30;;;20.83;;
14708;SDS011;7445;50.774;4.944;2023-04-06T15:15:40;23.30;;;20.83;;
14708;SDS011;7445;50.774;4.944;2023-04-06T15:18:06;22.77;;;19.60;;
14708;SDS011;7445;50.774;4.944;2023-04-06T15:20:32;23.73;;;21.53;;
14708;SDS011;7445;50.774;4.944;2023-04-06T15:22:58;22.50;;;20.20;;
14708;SDS011;7445;50.774;4.944;2023-04-06T15:25:24;22.73;;;20.33;;
14708;SDS011;7445;50.774;4.944;2023-04-06T15:27:50;23.77;;;21.30;;
14708;SDS011;7445;50.774;4.944;2023-04-06T15:30:15;24.87;;;22.23;;
14708;SDS011;7445;50.774;4.944;2023-04-06T15:32:46;24.07;;;21.40;;
14708;SDS011;7445;50.774;4.944;2023-04-06T15:35:25;23.07;;;20.77;;
14708;SDS011;7445;50.774;4.944;2023-04-06T15:37:57;23.70;;;21.03;;
14708;SDS011;7445;50.774;4.944;2023-04-06T15:40:23;23.60;;;20.77;;
14708;SDS011;7445;50.774;4.944;2023-04-06T15:42:49;24.13;;;21.83;;
14708;SDS011;7445;50.774;4.944;2023-04-06T15:45:15;23.97;;;21.43;;
14708;SDS011;7445;50.774;4.944;2023-04-06T15:47:41;23.73;;;20.60;;
14708;SDS011;7445;50.774;4.944;2023-04-06T15:50:08;22.30;;;20.17;;
14708;SDS011;7445;50.774;4.944;2023-04-06T15:52:35;23.33;;;20.93;;
14708;SDS011;7445;50.774;4.944;2023-04-06T15:55:04;22.47;;;20.37;;
14708;SDS011;7445;50.774;4.944;2023-04-06T15:57:31;22.77;;;18.93;;
14708;SDS011;7445;50.774;4.944;2023-04-06T15:59:57;22.83;;;20.60;;
14708;SDS011;7445;50.774;4.944;2023-04-06T16:02:23;23.43;;;20.93;;
14708;SDS011;7445;50.774;4.944;2023-04-06T16:04:56;21.00;;;18.90;;
14708;SDS011;7445;50.774;4.944;2023-04-06T16:07:22;22.07;;;19.90;;
14708;SDS011;7445;50.774;4.944;2023-04-06T16:09:53;21.27;;;19.20;;
14708;SDS011;7445;50.774;4.944;2023-04-06T16:12:19;20.67;;;18.63;;
14708;SDS011;7445;50.774;4.944;2023-04-06T16:14:46;23.13;;;18.73;;
14708;SDS011;7445;50.774;4.944;2023-04-06T16:17:12;18.70;;;16.70;;
14708;SDS011;7445;50.774;4.944;2023-04-06T16:19:38;18.20;;;16.40;;
14708;SDS011;7445;50.774;4.944;2023-04-06T16:22:04;20.10;;;17.93;;
14708;SDS011;7445;50.774;4.944;2023-04-06T16:24:31;16.60;;;14.87;;
14708;SDS011;7445;50.774;4.944;2023-04-06T16:26:56;19.20;;;17.17;;
14708;SDS011;7445;50.774;4.944;2023-04-06T16:29:23;19.83;;;15.03;;
14708;SDS011;7445;50.774;4.944;2023-04-06T16:31:51;17.43;;;15.73;;
14708;SDS011;7445;50.774;4.944;2023-04-06T16:34:20;18.93;;;17.03;;
14708;SDS011;7445;50.774;4.944;2023-04-06T16:36:46;17.13;;;15.43;;
14708;SDS011;7445;50.774;4.944;2023-04-06T16:39:11;17.47;;;15.70;;
14708;SDS011;7445;50.774;4.944;2023-04-06T16:41:37;16.80;;;15.00;;
14708;SDS011;7445;50.774;4.944;2023-04-06T16:44:03;15.07;;;13.47;;
14708;SDS011;7445;50.774;4.944;2023-04-06T16:46:33;15.50;;;14.10;;
14708;SDS011;7445;50.774;4.944;2023-04-06T16:49:00;16.60;;;14.63;;
14708;SDS011;7445;50.774;4.944;2023-04-06T16:51:27;16.17;;;14.60;;
14708;SDS011;7445;50.774;4.944;2023-04-06T16:53:54;15.63;;;14.07;;
14708;SDS011;7445;50.774;4.944;2023-04-06T16:56:19;16.87;;;15.27;;
14708;SDS011;7445;50.774;4.944;2023-04-06T16:58:45;20.50;;;16.33;;
14708;SDS011;7445;50.774;4.944;2023-04-06T17:01:17;16.80;;;15.10;;
14708;SDS011;7445;50.774;4.944;2023-04-06T17:03:51;16.23;;;14.57;;
14708;SDS011;7445;50.774;4.944;2023-04-06T17:06:17;17.83;;;16.00;;
14708;SDS011;7445;50.774;4.944;2023-04-06T17:08:44;15.77;;;14.33;;
14708;SDS011;7445;50.774;4.944;2023-04-06T17:11:11;17.13;;;14.83;;
14708;SDS011;7445;50.774;4.944;2023-04-06T17:13:38;15.83;;;14.13;;
14708;SDS011;7445;50.774;4.944;2023-04-06T17:16:04;15.43;;;13.93;;
14708;SDS011;7445;50.774;4.944;2023-04-06T17:18:30;17.33;;;15.63;;
14708;SDS011;7445;50.774;4.944;2023-04-06T17:20:56;18.17;;;16.10;;
14708;SDS011;7445;50.774;4.944;2023-04-06T17:23:22;16.53;;;14.93;;
14708;SDS011;7445;50.774;4.944;2023-04-06T17:25:49;15.90;;;14.00;;
14708;SDS011;7445;50.774;4.944;2023-04-06T17:28:15;15.63;;;13.77;;
14708;SDS011;7445;50.774;4.944;2023-04-06T17:30:41;17.37;;;15.60;;
14708;SDS011;7445;50.774;4.944;2023-04-06T17:33:07;15.73;;;14.07;;
14708;SDS011;7445;50.774;4.944;2023-04-06T17:35:33;15.77;;;14.00;;
14708;SDS011;7445;50.774;4.944;2023-04-06T17:37:59;15.23;;;13.70;;
14708;SDS011;7445;50.774;4.944;2023-04-06T17:40:25;19.83;;;16.60;;
14708;SDS011;7445;50.774;4.944;2023-04-06T17:42:51;17.40;;;14.37;;
14708;SDS011;7445;50.774;4.944;2023-04-06T17:45:17;16.33;;;14.70;;
14708;SDS011;7445;50.774;4.944;2023-04-06T17:47:42;18.20;;;16.40;;
14708;SDS011;7445;50.774;4.944;2023-04-06T17:50:08;17.73;;;15.77;;
14708;SDS011;7445;50.774;4.944;2023-04-06T17:52:34;21.60;;;17.20;;
14708;SDS011;7445;50.774;4.944;2023-04-06T17:55:01;17.50;;;15.70;;
14708;SDS011;7445;50.774;4.944;2023-04-06T17:57:27;17.07;;;15.27;;
14708;SDS011;7445;50.774;4.944;2023-04-06T17:59:53;19.40;;;17.03;;
14708;SDS011;7445;50.774;4.944;2023-04-06T18:02:19;21.17;;;16.77;;
14708;SDS011;7445;50.774;4.944;2023-04-06T18:04:45;18.53;;;16.60;;
14708;SDS011;7445;50.774;4.944;2023-04-06T18:07:11;17.30;;;15.43;;
14708;SDS011;7445;50.774;4.944;2023-04-06T18:09:37;18.10;;;16.17;;
14708;SDS011;7445;50.774;4.944;2023-04-06T18:12:03;17.50;;;15.63;;
14708;SDS011;7445;50.774;4.944;2023-04-06T18:14:29;17.50;;;15.70;;
14708;SDS011;7445;50.774;4.944;2023-04-06T18:16:55;19.17;;;17.07;;
14708;SDS011;7445;50.774;4.944;2023-04-06T18:19:21;16.83;;;15.23;;
14708;SDS011;7445;50.774;4.944;2023-04-06T18:21:46;16.97;;;15.17;;
14708;SDS011;7445;50.774;4.944;2023-04-06T18:24:12;19.87;;;17.73;;
14708;SDS011;7445;50.774;4.944;2023-04-06T18:26:38;19.20;;;17.17;;
14708;SDS011;7445;50.774;4.944;2023-04-06T18:29:04;19.30;;;17.50;;
14708;SDS011;7445;50.774;4.944;2023-04-06T18:31:30;19.10;;;16.83;;
14708;SDS011;7445;50.774;4.944;2023-04-06T18:33:56;21.40;;;16.77;;
14708;SDS011;7445;50.774;4.944;2023-04-06T18:36:21;19.97;;;17.43;;
14708;SDS011;7445;50.774;4.944;2023-04-06T18:38:47;19.03;;;17.03;;
14708;SDS011;7445;50.774;4.944;2023-04-06T18:41:14;21.17;;;17.13;;
14708;SDS011;7445;50.774;4.944;2023-04-06T18:43:40;20.40;;;18.40;;
14708;SDS011;7445;50.774;4.944;2023-04-06T18:46:12;23.03;;;19.30;;
14708;SDS011;7445;50.774;4.944;2023-04-06T18:48:39;21.73;;;17.83;;
14708;SDS011;7445;50.774;4.944;2023-04-06T18:51:05;21.70;;;19.67;;
14708;SDS011;7445;50.774;4.944;2023-04-06T18:53:31;22.47;;;19.67;;
14708;SDS011;7445;50.774;4.944;2023-04-06T18:55:57;25.00;;;19.33;;
14708;SDS011;7445;50.774;4.944;2023-04-06T18:58:23;21.77;;;18.33;;
14708;SDS011;7445;50.774;4.944;2023-04-06T19:00:50;20.23;;;18.30;;
14708;SDS011;7445;50.774;4.944;2023-04-06T19:03:16;23.23;;;20.13;;
14708;SDS011;7445;50.774;4.944;2023-04-06T19:05:42;24.03;;;17.80;;
14708;SDS011;7445;50.774;4.944;2023-04-06T19:08:08;25.47;;;19.57;;
14708;SDS011;7445;50.774;4.944;2023-04-06T19:10:34;19.83;;;17.80;;
14708;SDS011;7445;50.774;4.944;2023-04-06T19:13:01;27.23;;;18.47;;
14708;SDS011;7445;50.774;4.944;2023-04-06T19:15:27;23.73;;;19.67;;
14708;SDS011;7445;50.774;4.944;2023-04-06T19:17:53;23.80;;;19.37;;
14708;SDS011;7445;50.774;4.944;2023-04-06T19:20:19;23.83;;;17.77;;
14708;SDS011;7445;50.774;4.944;2023-04-06T19:22:45;27.27;;;18.67;;
14708;SDS011;7445;50.774;4.944;2023-04-06T19:25:10;21.63;;;15.40;;
14708;SDS011;7445;50.774;4.944;2023-04-06T19:27:36;25.03;;;16.30;;
14708;SDS011;7445;50.774;4.944;2023-04-06T19:30:04;18.97;;;15.63;;
14708;SDS011;7445;50.774;4.944;2023-04-06T19:32:30;18.97;;;15.17;;
14708;SDS011;7445;50.774;4.944;2023-04-06T19:34:56;17.87;;;13.50;;
14708;SDS011;7445;50.774;4.944;2023-04-06T19:37:23;18.50;;;13.53;;
14708;SDS011;7445;50.774;4.944;2023-04-06T19:39:49;22.90;;;12.23;;
14708;SDS011;7445;50.774;4.944;2023-04-06T19:42:15;22.10;;;11.60;;
14708;SDS011;7445;50.774;4.944;2023-04-06T19:44:40;20.83;;;11.57;;
14708;SDS011;7445;50.774;4.944;2023-04-06T19:47:06;16.07;;;11.23;;
14708;SDS011;7445;50.774;4.944;2023-04-06T19:49:32;14.07;;;10.40;;
14708;SDS011;7445;50.774;4.944;2023-04-06T19:51:57;20.93;;;10.47;;
14708;SDS011;7445;50.774;4.944;2023-04-06T19:54:23;17.80;;;9.97;;
14708;SDS011;7445;50.774;4.944;2023-04-06T19:56:49;15.47;;;10.57;;
14708;SDS011;7445;50.774;4.944;2023-04-06T19:59:14;20.80;;;11.37;;
14708;SDS011;7445;50.774;4.944;2023-04-06T20:01:41;19.77;;;13.10;;
14708;SDS011;7445;50.774;4.944;2023-04-06T20:04:08;24.63;;;13.33;;
14708;SDS011;7445;50.774;4.944;2023-04-06T20:06:34;15.10;;;11.73;;
14708;SDS011;7445;50.774;4.944;2023-04-06T20:08:59;18.97;;;12.57;;
14708;SDS011;7445;50.774;4.944;2023-04-06T20:11:25;18.50;;;11.77;;
14708;SDS011;7445;50.774;4.944;2023-04-06T20:13:51;20.67;;;12.33;;
14708;SDS011;7445;50.774;4.944;2023-04-06T20:16:16;21.83;;;12.83;;
14708;SDS011;7445;50.774;4.944;2023-04-06T20:18:42;17.90;;;13.13;;
14708;SDS011;7445;50.774;4.944;2023-04-06T20:21:08;19.53;;;11.97;;
14708;SDS011;7445;50.774;4.944;2023-04-06T20:23:33;20.57;;;12.67;;
14708;SDS011;7445;50.774;4.944;2023-04-06T20:26:01;18.90;;;12.57;;
14708;SDS011;7445;50.774;4.944;2023-04-06T20:28:27;16.90;;;12.87;;
14708;SDS011;7445;50.774;4.944;2023-04-06T20:30:53;21.17;;;12.33;;
14708;SDS011;7445;50.774;4.944;2023-04-06T20:33:18;15.03;;;11.17;;
14708;SDS011;7445;50.774;4.944;2023-04-06T20:35:44;14.27;;;12.33;;
14708;SDS011;7445;50.774;4.944;2023-04-06T20:38:10;16.77;;;11.87;;
14708;SDS011;7445;50.774;4.944;2023-04-06T20:40:35;14.73;;;10.77;;
14708;SDS011;7445;50.774;4.944;2023-04-06T20:43:01;18.40;;;11.07;;
14708;SDS011;7445;50.774;4.944;2023-04-06T20:45:27;19.00;;;12.13;;
14708;SDS011;7445;50.774;4.944;2023-04-06T20:47:53;18.70;;;10.10;;
14708;SDS011;7445;50.774;4.944;2023-04-06T20:50:20;17.33;;;11.70;;
14708;SDS011;7445;50.774;4.944;2023-04-06T20:52:46;21.23;;;11.27;;
14708;SDS011;7445;50.774;4.944;2023-04-06T20:55:13;16.43;;;10.00;;
14708;SDS011;7445;50.774;4.944;2023-04-06T20:57:39;25.27;;;11.00;;
14708;SDS011;7445;50.774;4.944;2023-04-06T21:00:05;17.27;;;11.60;;
14708;SDS011;7445;50.774;4.944;2023-04-06T21:02:32;17.73;;;10.90;;
14708;SDS011;7445;50.774;4.944;2023-04-06T21:04:58;26.63;;;13.63;;
14708;SDS011;7445;50.774;4.944;2023-04-06T21:07:23;23.73;;;14.50;;
14708;SDS011;7445;50.774;4.944;2023-04-06T21:09:49;25.07;;;16.20;;
14708;SDS011;7445;50.774;4.944;2023-04-06T21:12:15;23.70;;;17.67;;
14708;SDS011;7445;50.774;4.944;2023-04-06T21:14:40;24.93;;;16.10;;
14708;SDS011;7445;50.774;4.944;2023-04-06T21:17:07;26.43;;;15.63;;
14708;SDS011;7445;50.774;4.944;2023-04-06T21:19:38;22.00;;;14.93;;
14708;SDS011;7445;50.774;4.944;2023-04-06T21:22:04;21.10;;;15.07;;
14708;SDS011;7445;50.774;4.944;2023-04-06T21:24:29;19.80;;;14.00;;
14708;SDS011;7445;50.774;4.944;2023-04-06T21:26:55;19.03;;;15.67;;
